sensor_id;sensor_type;location;lat;lon;timestamp;P1;durP1;ratioP1;P2;durP2;ratioP2
23360;SDS011;11852;50.082;18.554;2023-02-28T00:00:19;29.0;;;14.0;;
23360;SDS011;11852;50.082;18.554;2023-02-28T00:01:25;33.0;;;15.0;;
23360;SDS011;11852;50.082;18.554;2023-02-28T00:02:32;32.0;;;15.0;;
23360;SDS011;11852;50.082;18.554;2023-02-28T00:03:39;32.0;;;14.0;;
23360;SDS011;11852;50.082;18.554;2023-02-28T00:04:46;30.0;;;14.0;;
23360;SDS011;11852;50.082;18.554;2023-02-28T00:05:53;31.0;;;15.0;;
23360;SDS011;11852;50.082;18.554;2023-02-28T00:07:00;29.0;;;14.0;;
23360;SDS011;11852;50.082;18.554;2023-02-28T00:08:08;31.0;;;15.0;;
23360;SDS011;11852;50.082;18.554;2023-02-28T00:09:15;32.0;;;14.0;;
23360;SDS011;11852;50.082;18.554;2023-02-28T00:10:24;30.0;;;14.0;;
23360;SDS011;11852;50.082;18.554;2023-02-28T00:11:29;30.0;;;15.0;;
23360;SDS011;11852;50.082;18.554;2023-02-28T00:12:37;30.0;;;14.0;;
23360;SDS011;11852;50.082;18.554;2023-02-28T00:13:45;31.0;;;15.0;;
23360;SDS011;11852;50.082;18.554;2023-02-28T00:14:51;29.0;;;15.0;;
23360;SDS011;11852;50.082;18.554;2023-02-28T00:16:02;28.0;;;14.0;;
23360;SDS011;11852;50.082;18.554;2023-02-28T00:17:08;29.0;;;14.0;;
23360;SDS011;11852;50.082;18.554;2023-02-28T00:18:15;30.0;;;14.0;;
23360;SDS011;11852;50.082;18.554;2023-02-28T00:19:22;31.0;;;15.0;;
23360;SDS011;11852;50.082;18.554;2023-02-28T00:20:29;29.0;;;15.0;;
23360;SDS011;11852;50.082;18.554;2023-02-28T00:21:36;28.0;;;14.0;;
23360;SDS011;11852;50.082;18.554;2023-02-28T00:22:44;29.0;;;15.0;;
23360;SDS011;11852;50.082;18.554;2023-02-28T00:23:50;29.0;;;15.0;;
23360;SDS011;11852;50.082;18.554;2023-02-28T00:24:57;32.0;;;15.0;;
23360;SDS011;11852;50.082;18.554;2023-02-28T00:26:04;32.0;;;14.0;;
23360;SDS011;11852;50.082;18.554;2023-02-28T00:27:11;31.0;;;15.0;;
23360;SDS011;11852;50.082;18.554;2023-02-28T00:28:17;30.0;;;15.0;;
23360;SDS011;11852;50.082;18.554;2023-02-28T00:29:24;30.0;;;14.0;;
23360;SDS011;11852;50.082;18.554;2023-02-28T00:30:32;31.0;;;16.0;;
23360;SDS011;11852;50.082;18.554;2023-02-28T00:31:39;30.0;;;15.0;;
23360;SDS011;11852;50.082;18.554;2023-02-28T00:32:46;31.0;;;16.0;;
23360;SDS011;11852;50.082;18.554;2023-02-28T00:33:53;34.0;;;15.0;;
23360;SDS011;11852;50.082;18.554;2023-02-28T00:35:01;32.0;;;16.0;;
23360;SDS011;11852;50.082;18.554;2023-02-28T00:36:09;33.0;;;17.0;;
23360;SDS011;11852;50.082;18.554;2023-02-28T00:37:15;35.0;;;16.0;;
23360;SDS011;11852;50.082;18.554;2023-02-28T00:38:22;35.0;;;17.0;;
23360;SDS011;11852;50.082;18.554;2023-02-28T00:39:29;37.0;;;17.0;;
23360;SDS011;11852;50.082;18.554;2023-02-28T00:40:36;35.0;;;17.0;;
23360;SDS011;11852;50.082;18.554;2023-02-28T00:41:43;37.0;;;17.0;;
23360;SDS011;11852;50.082;18.554;2023-02-28T00:42:50;37.0;;;17.0;;
23360;SDS011;11852;50.082;18.554;2023-02-28T00:43:56;40.0;;;18.0;;
23360;SDS011;11852;50.082;18.554;2023-02-28T00:45:05;39.0;;;18.0;;
23360;SDS011;11852;50.082;18.554;2023-02-28T00:46:12;40.0;;;18.0;;
23360;SDS011;11852;50.082;18.554;2023-02-28T00:47:19;40.0;;;18.0;;
23360;SDS011;11852;50.082;18.554;2023-02-28T00:48:26;42.0;;;20.0;;
23360;SDS011;11852;50.082;18.554;2023-02-28T00:49:38;39.0;;;19.0;;
23360;SDS011;11852;50.082;18.554;2023-02-28T00:50:48;44.0;;;20.0;;
23360;SDS011;11852;50.082;18.554;2023-02-28T00:51:53;42.0;;;20.0;;
23360;SDS011;11852;50.082;18.554;2023-02-28T00:52:59;40.0;;;20.0;;
23360;SDS011;11852;50.082;18.554;2023-02-28T00:54:10;44.0;;;20.0;;
23360;SDS011;11852;50.082;18.554;2023-02-28T00:55:17;44.0;;;21.0;;
23360;SDS011;11852;50.082;18.554;2023-02-28T00:56:24;41.0;;;20.0;;
23360;SDS011;11852;50.082;18.554;2023-02-28T00:57:31;41.0;;;19.0;;
23360;SDS011;11852;50.082;18.554;2023-02-28T00:58:38;40.0;;;19.0;;
23360;SDS011;11852;50.082;18.554;2023-02-28T00:59:45;40.0;;;19.0;;
23360;SDS011;11852;50.082;18.554;2023-02-28T01:00:53;41.0;;;20.0;;
23360;SDS011;11852;50.082;18.554;2023-02-28T01:01:59;41.0;;;20.0;;
23360;SDS011;11852;50.082;18.554;2023-02-28T01:03:06;40.0;;;19.0;;
23360;SDS011;11852;50.082;18.554;2023-02-28T01:04:13;40.0;;;19.0;;
23360;SDS011;11852;50.082;18.554;2023-02-28T01:05:20;39.0;;;19.0;;
23360;SDS011;11852;50.082;18.554;2023-02-28T01:06:28;40.0;;;19.0;;
23360;SDS011;11852;50.082;18.554;2023-02-28T01:07:35;40.0;;;19.0;;
23360;SDS011;11852;50.082;18.554;2023-02-28T01:08:42;43.0;;;20.0;;
23360;SDS011;11852;50.082;18.554;2023-02-28T01:09:48;40.0;;;19.0;;
23360;SDS011;11852;50.082;18.554;2023-02-28T01:10:55;39.0;;;19.0;;
23360;SDS011;11852;50.082;18.554;2023-02-28T01:12:02;37.0;;;18.0;;
23360;SDS011;11852;50.082;18.554;2023-02-28T01:13:09;36.0;;;18.0;;
23360;SDS011;11852;50.082;18.554;2023-02-28T01:14:17;38.0;;;18.0;;
23360;SDS011;11852;50.082;18.554;2023-02-28T01:15:23;36.0;;;18.0;;
23360;SDS011;11852;50.082;18.554;2023-02-28T01:16:31;37.0;;;18.0;;
23360;SDS011;11852;50.082;18.554;2023-02-28T01:17:37;36.0;;;18.0;;
23360;SDS011;11852;50.082;18.554;2023-02-28T01:18:46;34.0;;;17.0;;
23360;SDS011;11852;50.082;18.554;2023-02-28T01:19:54;38.0;;;19.0;;
23360;SDS011;11852;50.082;18.554;2023-02-28T01:22:12;36.0;;;18.0;;
23360;SDS011;11852;50.082;18.554;2023-02-28T01:23:23;38.0;;;19.0;;
23360;SDS011;11852;50.082;18.554;2023-02-28T01:24:30;38.0;;;19.0;;
23360;SDS011;11852;50.082;18.554;2023-02-28T01:25:37;38.0;;;19.0;;
23360;SDS011;11852;50.082;18.554;2023-02-28T01:26:44;38.0;;;19.0;;
23360;SDS011;11852;50.082;18.554;2023-02-28T01:27:51;40.0;;;19.0;;
23360;SDS011;11852;50.082;18.554;2023-02-28T01:28:58;38.0;;;18.0;;
23360;SDS011;11852;50.082;18.554;2023-02-28T01:30:05;38.0;;;19.0;;
23360;SDS011;11852;50.082;18.554;2023-02-28T01:31:12;36.0;;;18.0;;
23360;SDS011;11852;50.082;18.554;2023-02-28T01:32:19;43.0;;;20.0;;
23360;SDS011;11852;50.082;18.554;2023-02-28T01:33:25;36.0;;;18.0;;
23360;SDS011;11852;50.082;18.554;2023-02-28T01:34:32;40.0;;;20.0;;
23360;SDS011;11852;50.082;18.554;2023-02-28T01:35:39;39.0;;;19.0;;
23360;SDS011;11852;50.082;18.554;2023-02-28T01:36:48;41.0;;;19.0;;
23360;SDS011;11852;50.082;18.554;2023-02-28T01:37:56;38.0;;;19.0;;
23360;SDS011;11852;50.082;18.554;2023-02-28T01:39:04;37.0;;;18.0;;
23360;SDS011;11852;50.082;18.554;2023-02-28T01:40:11;37.0;;;19.0;;
23360;SDS011;11852;50.082;18.554;2023-02-28T01:41:20;37.0;;;18.0;;
23360;SDS011;11852;50.082;18.554;2023-02-28T01:42:28;38.0;;;18.0;;
23360;SDS011;11852;50.082;18.554;2023-02-28T01:46:04;37.0;;;18.0;;
23360;SDS011;11852;50.082;18.554;2023-02-28T01:47:11;36.0;;;18.0;;
23360;SDS011;11852;50.082;18.554;2023-02-28T01:48:18;40.0;;;19.0;;
23360;SDS011;11852;50.082;18.554;2023-02-28T01:49:25;38.0;;;18.0;;
23360;SDS011;11852;50.082;18.554;2023-02-28T01:50:34;38.0;;;18.0;;
23360;SDS011;11852;50.082;18.554;2023-02-28T01:52:47;38.0;;;18.0;;
23360;SDS011;11852;50.082;18.554;2023-02-28T01:53:56;37.0;;;19.0;;
23360;SDS011;11852;50.082;18.554;2023-02-28T01:55:02;41.0;;;19.0;;
23360;SDS011;11852;50.082;18.554;2023-02-28T01:56:09;40.0;;;19.0;;
23360;SDS011;11852;50.082;18.554;2023-02-28T01:57:17;39.0;;;19.0;;
23360;SDS011;11852;50.082;18.554;2023-02-28T01:58:23;37.0;;;18.0;;
23360;SDS011;11852;50.082;18.554;2023-02-28T01:59:34;42.0;;;20.0;;
23360;SDS011;11852;50.082;18.554;2023-02-28T02:00:39;37.0;;;18.0;;
23360;SDS011;11852;50.082;18.554;2023-02-28T02:01:47;40.0;;;20.0;;
23360;SDS011;11852;50.082;18.554;2023-02-28T02:02:55;40.0;;;20.0;;
23360;SDS011;11852;50.082;18.554;2023-02-28T02:04:01;42.0;;;21.0;;
23360;SDS011;11852;50.082;18.554;2023-02-28T02:05:11;41.0;;;19.0;;
23360;SDS011;11852;50.082;18.554;2023-02-28T02:06:15;42.0;;;20.0;;
23360;SDS011;11852;50.082;18.554;2023-02-28T02:07:22;40.0;;;20.0;;
23360;SDS011;11852;50.082;18.554;2023-02-28T02:08:31;45.0;;;21.0;;
23360;SDS011;11852;50.082;18.554;2023-02-28T02:09:38;44.0;;;21.0;;
23360;SDS011;11852;50.082;18.554;2023-02-28T02:11:58;43.0;;;22.0;;
23360;SDS011;11852;50.082;18.554;2023-02-28T02:13:12;44.0;;;21.0;;
23360;SDS011;11852;50.082;18.554;2023-02-28T02:14:23;44.0;;;22.0;;
23360;SDS011;11852;50.082;18.554;2023-02-28T02:15:32;45.0;;;21.0;;
23360;SDS011;11852;50.082;18.554;2023-02-28T02:17:52;46.0;;;23.0;;
23360;SDS011;11852;50.082;18.554;2023-02-28T02:21:35;46.0;;;22.0;;
23360;SDS011;11852;50.082;18.554;2023-02-28T02:28:55;48.0;;;23.0;;
23360;SDS011;11852;50.082;18.554;2023-02-28T02:30:07;47.0;;;22.0;;
23360;SDS011;11852;50.082;18.554;2023-02-28T02:36:04;48.0;;;24.0;;
23360;SDS011;11852;50.082;18.554;2023-02-28T02:37:15;49.0;;;22.0;;
23360;SDS011;11852;50.082;18.554;2023-02-28T02:40:54;52.0;;;24.0;;
23360;SDS011;11852;50.082;18.554;2023-02-28T02:41:58;50.0;;;24.0;;
23360;SDS011;11852;50.082;18.554;2023-02-28T02:43:09;50.0;;;23.0;;
23360;SDS011;11852;50.082;18.554;2023-02-28T02:46:47;49.0;;;23.0;;
23360;SDS011;11852;50.082;18.554;2023-02-28T02:47:53;50.0;;;23.0;;
23360;SDS011;11852;50.082;18.554;2023-02-28T02:49:00;51.0;;;24.0;;
23360;SDS011;11852;50.082;18.554;2023-02-28T02:50:08;52.0;;;23.0;;
23360;SDS011;11852;50.082;18.554;2023-02-28T02:51:14;53.0;;;25.0;;
23360;SDS011;11852;50.082;18.554;2023-02-28T02:52:22;48.0;;;23.0;;
23360;SDS011;11852;50.082;18.554;2023-02-28T02:53:30;52.0;;;24.0;;
23360;SDS011;11852;50.082;18.554;2023-02-28T02:54:36;48.0;;;23.0;;
23360;SDS011;11852;50.082;18.554;2023-02-28T02:55:43;50.0;;;24.0;;
23360;SDS011;11852;50.082;18.554;2023-02-28T02:56:49;48.0;;;23.0;;
23360;SDS011;11852;50.082;18.554;2023-02-28T02:58:01;50.0;;;24.0;;
23360;SDS011;11852;50.082;18.554;2023-02-28T02:59:11;54.0;;;24.0;;
23360;SDS011;11852;50.082;18.554;2023-02-28T03:00:17;50.0;;;23.0;;
23360;SDS011;11852;50.082;18.554;2023-02-28T03:01:29;51.0;;;25.0;;
23360;SDS011;11852;50.082;18.554;2023-02-28T03:02:36;50.0;;;24.0;;
23360;SDS011;11852;50.082;18.554;2023-02-28T03:03:42;54.0;;;26.0;;
23360;SDS011;11852;50.082;18.554;2023-02-28T03:04:52;52.0;;;25.0;;
23360;SDS011;11852;50.082;18.554;2023-02-28T03:05:59;53.0;;;26.0;;
23360;SDS011;11852;50.082;18.554;2023-02-28T03:07:06;53.0;;;26.0;;
23360;SDS011;11852;50.082;18.554;2023-02-28T03:08:13;53.0;;;25.0;;
23360;SDS011;11852;50.082;18.554;2023-02-28T03:09:23;53.0;;;26.0;;
23360;SDS011;11852;50.082;18.554;2023-02-28T03:11:37;55.0;;;26.0;;
23360;SDS011;11852;50.082;18.554;2023-02-28T03:12:48;55.0;;;26.0;;
23360;SDS011;11852;50.082;18.554;2023-02-28T03:15:07;51.0;;;26.0;;
23360;SDS011;11852;50.082;18.554;2023-02-28T03:23:43;53.0;;;26.0;;
23360;SDS011;11852;50.082;18.554;2023-02-28T03:33:34;44.0;;;21.0;;
23360;SDS011;11852;50.082;18.554;2023-02-28T03:34:41;42.0;;;21.0;;
23360;SDS011;11852;50.082;18.554;2023-02-28T03:35:51;44.0;;;22.0;;
23360;SDS011;11852;50.082;18.554;2023-02-28T03:37:01;44.0;;;22.0;;
23360;SDS011;11852;50.082;18.554;2023-02-28T03:38:08;45.0;;;23.0;;
23360;SDS011;11852;50.082;18.554;2023-02-28T03:39:14;43.0;;;21.0;;
23360;SDS011;11852;50.082;18.554;2023-02-28T03:40:21;44.0;;;21.0;;
23360;SDS011;11852;50.082;18.554;2023-02-28T03:41:31;47.0;;;22.0;;
23360;SDS011;11852;50.082;18.554;2023-02-28T03:42:37;42.0;;;21.0;;
23360;SDS011;11852;50.082;18.554;2023-02-28T03:43:47;42.0;;;22.0;;
23360;SDS011;11852;50.082;18.554;2023-02-28T03:44:57;43.0;;;23.0;;
23360;SDS011;11852;50.082;18.554;2023-02-28T03:46:03;44.0;;;22.0;;
23360;SDS011;11852;50.082;18.554;2023-02-28T03:47:11;42.0;;;21.0;;
23360;SDS011;11852;50.082;18.554;2023-02-28T03:48:18;44.0;;;22.0;;
23360;SDS011;11852;50.082;18.554;2023-02-28T03:49:27;45.0;;;22.0;;
23360;SDS011;11852;50.082;18.554;2023-02-28T03:50:37;45.0;;;22.0;;
23360;SDS011;11852;50.082;18.554;2023-02-28T03:51:46;46.0;;;23.0;;
23360;SDS011;11852;50.082;18.554;2023-02-28T03:54:10;45.0;;;22.0;;
23360;SDS011;11852;50.082;18.554;2023-02-28T03:55:16;42.0;;;22.0;;
23360;SDS011;11852;50.082;18.554;2023-02-28T03:56:25;45.0;;;23.0;;
23360;SDS011;11852;50.082;18.554;2023-02-28T04:00:12;43.0;;;22.0;;
23360;SDS011;11852;50.082;18.554;2023-02-28T04:01:23;46.0;;;23.0;;
23360;SDS011;11852;50.082;18.554;2023-02-28T04:02:32;44.0;;;23.0;;
23360;SDS011;11852;50.082;18.554;2023-02-28T04:03:39;44.0;;;22.0;;
23360;SDS011;11852;50.082;18.554;2023-02-28T04:04:46;44.0;;;23.0;;
23360;SDS011;11852;50.082;18.554;2023-02-28T04:05:53;44.0;;;23.0;;
23360;SDS011;11852;50.082;18.554;2023-02-28T04:07:05;44.0;;;23.0;;
23360;SDS011;11852;50.082;18.554;2023-02-28T04:08:10;42.0;;;22.0;;
23360;SDS011;11852;50.082;18.554;2023-02-28T04:09:19;45.0;;;23.0;;
23360;SDS011;11852;50.082;18.554;2023-02-28T04:10:26;49.0;;;24.0;;
23360;SDS011;11852;50.082;18.554;2023-02-28T04:11:42;48.0;;;23.0;;
23360;SDS011;11852;50.082;18.554;2023-02-28T04:12:45;46.0;;;24.0;;
23360;SDS011;11852;50.082;18.554;2023-02-28T04:13:51;51.0;;;25.0;;
23360;SDS011;11852;50.082;18.554;2023-02-28T04:15:01;47.0;;;24.0;;
23360;SDS011;11852;50.082;18.554;2023-02-28T04:16:08;49.0;;;24.0;;
23360;SDS011;11852;50.082;18.554;2023-02-28T04:17:15;50.0;;;25.0;;
23360;SDS011;11852;50.082;18.554;2023-02-28T04:18:22;51.0;;;24.0;;
23360;SDS011;11852;50.082;18.554;2023-02-28T04:19:32;49.0;;;24.0;;
23360;SDS011;11852;50.082;18.554;2023-02-28T04:20:39;48.0;;;23.0;;
23360;SDS011;11852;50.082;18.554;2023-02-28T04:21:48;47.0;;;23.0;;
23360;SDS011;11852;50.082;18.554;2023-02-28T04:22:54;44.0;;;20.0;;
23360;SDS011;11852;50.082;18.554;2023-02-28T04:24:03;46.0;;;21.0;;
23360;SDS011;11852;50.082;18.554;2023-02-28T04:25:10;43.0;;;20.0;;
23360;SDS011;11852;50.082;18.554;2023-02-28T04:26:17;43.0;;;21.0;;
23360;SDS011;11852;50.082;18.554;2023-02-28T04:27:26;43.0;;;22.0;;
23360;SDS011;11852;50.082;18.554;2023-02-28T04:28:36;44.0;;;20.0;;
23360;SDS011;11852;50.082;18.554;2023-02-28T04:29:42;44.0;;;22.0;;
23360;SDS011;11852;50.082;18.554;2023-02-28T04:32:04;46.0;;;22.0;;
23360;SDS011;11852;50.082;18.554;2023-02-28T04:33:10;45.0;;;22.0;;
23360;SDS011;11852;50.082;18.554;2023-02-28T04:34:17;45.0;;;22.0;;
23360;SDS011;11852;50.082;18.554;2023-02-28T04:35:24;44.0;;;22.0;;
23360;SDS011;11852;50.082;18.554;2023-02-28T04:36:32;40.0;;;21.0;;
23360;SDS011;11852;50.082;18.554;2023-02-28T04:37:38;42.0;;;20.0;;
23360;SDS011;11852;50.082;18.554;2023-02-28T04:38:46;42.0;;;22.0;;
23360;SDS011;11852;50.082;18.554;2023-02-28T04:39:54;43.0;;;22.0;;
23360;SDS011;11852;50.082;18.554;2023-02-28T04:41:01;41.0;;;21.0;;
23360;SDS011;11852;50.082;18.554;2023-02-28T04:42:10;45.0;;;22.0;;
23360;SDS011;11852;50.082;18.554;2023-02-28T04:43:17;45.0;;;22.0;;
23360;SDS011;11852;50.082;18.554;2023-02-28T04:44:25;44.0;;;22.0;;
23360;SDS011;11852;50.082;18.554;2023-02-28T04:45:33;44.0;;;21.0;;
23360;SDS011;11852;50.082;18.554;2023-02-28T04:46:42;43.0;;;22.0;;
23360;SDS011;11852;50.082;18.554;2023-02-28T04:47:49;43.0;;;23.0;;
23360;SDS011;11852;50.082;18.554;2023-02-28T04:48:56;43.0;;;21.0;;
23360;SDS011;11852;50.082;18.554;2023-02-28T04:50:03;45.0;;;22.0;;
23360;SDS011;11852;50.082;18.554;2023-02-28T04:51:15;42.0;;;23.0;;
23360;SDS011;11852;50.082;18.554;2023-02-28T04:52:20;47.0;;;23.0;;
23360;SDS011;11852;50.082;18.554;2023-02-28T04:53:27;45.0;;;21.0;;
23360;SDS011;11852;50.082;18.554;2023-02-28T04:54:34;43.0;;;23.0;;
23360;SDS011;11852;50.082;18.554;2023-02-28T04:55:41;45.0;;;23.0;;
23360;SDS011;11852;50.082;18.554;2023-02-28T04:56:50;50.0;;;25.0;;
23360;SDS011;11852;50.082;18.554;2023-02-28T04:57:57;47.0;;;23.0;;
23360;SDS011;11852;50.082;18.554;2023-02-28T04:59:04;48.0;;;24.0;;
23360;SDS011;11852;50.082;18.554;2023-02-28T05:00:13;49.0;;;24.0;;
23360;SDS011;11852;50.082;18.554;2023-02-28T05:01:24;48.0;;;24.0;;
23360;SDS011;11852;50.082;18.554;2023-02-28T05:02:30;47.0;;;25.0;;
23360;SDS011;11852;50.082;18.554;2023-02-28T05:03:37;48.0;;;24.0;;
23360;SDS011;11852;50.082;18.554;2023-02-28T05:04:44;47.0;;;25.0;;
23360;SDS011;11852;50.082;18.554;2023-02-28T05:05:51;49.0;;;24.0;;
23360;SDS011;11852;50.082;18.554;2023-02-28T05:07:00;48.0;;;25.0;;
23360;SDS011;11852;50.082;18.554;2023-02-28T05:08:07;44.0;;;24.0;;
23360;SDS011;11852;50.082;18.554;2023-02-28T05:09:14;48.0;;;25.0;;
23360;SDS011;11852;50.082;18.554;2023-02-28T05:10:22;47.0;;;25.0;;
23360;SDS011;11852;50.082;18.554;2023-02-28T05:11:31;52.0;;;26.0;;
23360;SDS011;11852;50.082;18.554;2023-02-28T05:12:37;47.0;;;25.0;;
23360;SDS011;11852;50.082;18.554;2023-02-28T05:13:44;51.0;;;25.0;;
23360;SDS011;11852;50.082;18.554;2023-02-28T05:14:55;50.0;;;25.0;;
23360;SDS011;11852;50.082;18.554;2023-02-28T05:16:02;51.0;;;26.0;;
23360;SDS011;11852;50.082;18.554;2023-02-28T05:17:09;53.0;;;26.0;;
23360;SDS011;11852;50.082;18.554;2023-02-28T05:18:19;50.0;;;25.0;;
23360;SDS011;11852;50.082;18.554;2023-02-28T05:19:26;49.0;;;25.0;;
23360;SDS011;11852;50.082;18.554;2023-02-28T05:20:33;51.0;;;26.0;;
23360;SDS011;11852;50.082;18.554;2023-02-28T05:23:00;52.0;;;26.0;;
23360;SDS011;11852;50.082;18.554;2023-02-28T05:24:09;50.0;;;26.0;;
23360;SDS011;11852;50.082;18.554;2023-02-28T05:25:16;54.0;;;27.0;;
23360;SDS011;11852;50.082;18.554;2023-02-28T05:26:21;49.0;;;26.0;;
23360;SDS011;11852;50.082;18.554;2023-02-28T05:27:28;50.0;;;25.0;;
23360;SDS011;11852;50.082;18.554;2023-02-28T05:28:38;48.0;;;25.0;;
23360;SDS011;11852;50.082;18.554;2023-02-28T05:29:45;48.0;;;25.0;;
23360;SDS011;11852;50.082;18.554;2023-02-28T05:30:52;53.0;;;25.0;;
23360;SDS011;11852;50.082;18.554;2023-02-28T05:31:58;46.0;;;24.0;;
23360;SDS011;11852;50.082;18.554;2023-02-28T05:33:10;44.0;;;23.0;;
23360;SDS011;11852;50.082;18.554;2023-02-28T05:34:16;47.0;;;22.0;;
23360;SDS011;11852;50.082;18.554;2023-02-28T05:35:24;42.0;;;21.0;;
23360;SDS011;11852;50.082;18.554;2023-02-28T05:36:30;42.0;;;20.0;;
23360;SDS011;11852;50.082;18.554;2023-02-28T05:37:38;43.0;;;21.0;;
23360;SDS011;11852;50.082;18.554;2023-02-28T05:38:45;40.0;;;19.0;;
23360;SDS011;11852;50.082;18.554;2023-02-28T05:39:54;43.0;;;20.0;;
23360;SDS011;11852;50.082;18.554;2023-02-28T05:41:04;43.0;;;20.0;;
23360;SDS011;11852;50.082;18.554;2023-02-28T05:42:08;41.0;;;20.0;;
23360;SDS011;11852;50.082;18.554;2023-02-28T05:43:15;42.0;;;22.0;;
23360;SDS011;11852;50.082;18.554;2023-02-28T05:44:22;40.0;;;20.0;;
23360;SDS011;11852;50.082;18.554;2023-02-28T05:45:29;47.0;;;22.0;;
23360;SDS011;11852;50.082;18.554;2023-02-28T05:46:37;43.0;;;21.0;;
23360;SDS011;11852;50.082;18.554;2023-02-28T05:47:43;43.0;;;22.0;;
23360;SDS011;11852;50.082;18.554;2023-02-28T05:48:54;43.0;;;22.0;;
23360;SDS011;11852;50.082;18.554;2023-02-28T05:50:03;43.0;;;22.0;;
23360;SDS011;11852;50.082;18.554;2023-02-28T05:51:11;43.0;;;22.0;;
23360;SDS011;11852;50.082;18.554;2023-02-28T05:52:18;44.0;;;22.0;;
23360;SDS011;11852;50.082;18.554;2023-02-28T05:53:25;43.0;;;23.0;;
23360;SDS011;11852;50.082;18.554;2023-02-28T05:54:32;45.0;;;23.0;;
23360;SDS011;11852;50.082;18.554;2023-02-28T05:55:40;46.0;;;23.0;;
23360;SDS011;11852;50.082;18.554;2023-02-28T05:56:47;45.0;;;23.0;;
23360;SDS011;11852;50.082;18.554;2023-02-28T05:57:54;49.0;;;24.0;;
23360;SDS011;11852;50.082;18.554;2023-02-28T05:59:01;45.0;;;22.0;;
23360;SDS011;11852;50.082;18.554;2023-02-28T06:00:08;44.0;;;22.0;;
23360;SDS011;11852;50.082;18.554;2023-02-28T06:02:26;48.0;;;24.0;;
23360;SDS011;11852;50.082;18.554;2023-02-28T06:03:33;46.0;;;23.0;;
23360;SDS011;11852;50.082;18.554;2023-02-28T06:04:40;46.0;;;22.0;;
23360;SDS011;11852;50.082;18.554;2023-02-28T06:05:47;51.0;;;23.0;;
23360;SDS011;11852;50.082;18.554;2023-02-28T06:06:55;46.0;;;23.0;;
23360;SDS011;11852;50.082;18.554;2023-02-28T06:08:05;48.0;;;23.0;;
23360;SDS011;11852;50.082;18.554;2023-02-28T06:09:16;50.0;;;22.0;;
23360;SDS011;11852;50.082;18.554;2023-02-28T06:10:23;49.0;;;24.0;;
23360;SDS011;11852;50.082;18.554;2023-02-28T06:11:30;47.0;;;23.0;;
23360;SDS011;11852;50.082;18.554;2023-02-28T06:12:37;50.0;;;24.0;;
23360;SDS011;11852;50.082;18.554;2023-02-28T06:13:44;45.0;;;23.0;;
23360;SDS011;11852;50.082;18.554;2023-02-28T06:14:51;47.0;;;24.0;;
23360;SDS011;11852;50.082;18.554;2023-02-28T06:16:00;51.0;;;24.0;;
23360;SDS011;11852;50.082;18.554;2023-02-28T06:17:05;50.0;;;24.0;;
23360;SDS011;11852;50.082;18.554;2023-02-28T06:18:12;48.0;;;25.0;;
23360;SDS011;11852;50.082;18.554;2023-02-28T06:19:22;51.0;;;26.0;;
23360;SDS011;11852;50.082;18.554;2023-02-28T06:20:30;51.0;;;26.0;;
23360;SDS011;11852;50.082;18.554;2023-02-28T06:21:37;50.0;;;25.0;;
23360;SDS011;11852;50.082;18.554;2023-02-28T06:22:47;52.0;;;24.0;;
23360;SDS011;11852;50.082;18.554;2023-02-28T06:23:55;49.0;;;24.0;;
23360;SDS011;11852;50.082;18.554;2023-02-28T06:25:05;49.0;;;24.0;;
23360;SDS011;11852;50.082;18.554;2023-02-28T06:26:12;48.0;;;24.0;;
23360;SDS011;11852;50.082;18.554;2023-02-28T06:27:20;53.0;;;26.0;;
23360;SDS011;11852;50.082;18.554;2023-02-28T06:28:27;48.0;;;24.0;;
23360;SDS011;11852;50.082;18.554;2023-02-28T06:29:35;46.0;;;23.0;;
23360;SDS011;11852;50.082;18.554;2023-02-28T06:30:42;47.0;;;24.0;;
23360;SDS011;11852;50.082;18.554;2023-02-28T06:31:49;48.0;;;24.0;;
23360;SDS011;11852;50.082;18.554;2023-02-28T06:32:56;49.0;;;25.0;;
23360;SDS011;11852;50.082;18.554;2023-02-28T06:34:04;46.0;;;23.0;;
23360;SDS011;11852;50.082;18.554;2023-02-28T06:35:12;51.0;;;25.0;;
23360;SDS011;11852;50.082;18.554;2023-02-28T06:36:26;50.0;;;24.0;;
23360;SDS011;11852;50.082;18.554;2023-02-28T06:37:37;50.0;;;25.0;;
23360;SDS011;11852;50.082;18.554;2023-02-28T06:38:44;51.0;;;26.0;;
23360;SDS011;11852;50.082;18.554;2023-02-28T06:39:51;51.0;;;26.0;;
23360;SDS011;11852;50.082;18.554;2023-02-28T06:40:59;52.0;;;26.0;;
23360;SDS011;11852;50.082;18.554;2023-02-28T06:42:05;55.0;;;26.0;;
23360;SDS011;11852;50.082;18.554;2023-02-28T06:43:14;53.0;;;26.0;;
23360;SDS011;11852;50.082;18.554;2023-02-28T06:44:21;50.0;;;27.0;;
23360;SDS011;11852;50.082;18.554;2023-02-28T06:45:28;49.0;;;25.0;;
23360;SDS011;11852;50.082;18.554;2023-02-28T06:46:36;47.0;;;24.0;;
23360;SDS011;11852;50.082;18.554;2023-02-28T06:47:45;47.0;;;24.0;;
23360;SDS011;11852;50.082;18.554;2023-02-28T06:48:53;47.0;;;24.0;;
23360;SDS011;11852;50.082;18.554;2023-02-28T06:50:00;49.0;;;24.0;;
23360;SDS011;11852;50.082;18.554;2023-02-28T06:52:21;47.0;;;24.0;;
23360;SDS011;11852;50.082;18.554;2023-02-28T06:53:29;45.0;;;24.0;;
23360;SDS011;11852;50.082;18.554;2023-02-28T06:54:41;46.0;;;23.0;;
23360;SDS011;11852;50.082;18.554;2023-02-28T06:55:51;44.0;;;24.0;;
23360;SDS011;11852;50.082;18.554;2023-02-28T06:56:58;45.0;;;23.0;;
23360;SDS011;11852;50.082;18.554;2023-02-28T06:58:05;46.0;;;25.0;;
23360;SDS011;11852;50.082;18.554;2023-02-28T06:59:12;44.0;;;22.0;;
23360;SDS011;11852;50.082;18.554;2023-02-28T07:00:19;45.0;;;24.0;;
23360;SDS011;11852;50.082;18.554;2023-02-28T07:01:31;46.0;;;24.0;;
23360;SDS011;11852;50.082;18.554;2023-02-28T07:02:41;51.0;;;25.0;;
23360;SDS011;11852;50.082;18.554;2023-02-28T07:03:49;47.0;;;24.0;;
23360;SDS011;11852;50.082;18.554;2023-02-28T07:04:58;46.0;;;25.0;;
23360;SDS011;11852;50.082;18.554;2023-02-28T07:06:05;49.0;;;25.0;;
23360;SDS011;11852;50.082;18.554;2023-02-28T07:07:14;46.0;;;24.0;;
23360;SDS011;11852;50.082;18.554;2023-02-28T07:08:22;48.0;;;25.0;;
23360;SDS011;11852;50.082;18.554;2023-02-28T07:09:28;51.0;;;26.0;;
23360;SDS011;11852;50.082;18.554;2023-02-28T07:10:39;47.0;;;25.0;;
23360;SDS011;11852;50.082;18.554;2023-02-28T07:11:46;47.0;;;24.0;;
23360;SDS011;11852;50.082;18.554;2023-02-28T07:12:54;49.0;;;26.0;;
23360;SDS011;11852;50.082;18.554;2023-02-28T07:14:01;47.0;;;24.0;;
23360;SDS011;11852;50.082;18.554;2023-02-28T07:15:08;48.0;;;25.0;;
23360;SDS011;11852;50.082;18.554;2023-02-28T07:16:15;48.0;;;24.0;;
23360;SDS011;11852;50.082;18.554;2023-02-28T07:17:23;49.0;;;25.0;;
23360;SDS011;11852;50.082;18.554;2023-02-28T07:18:31;47.0;;;24.0;;
23360;SDS011;11852;50.082;18.554;2023-02-28T07:19:38;53.0;;;25.0;;
23360;SDS011;11852;50.082;18.554;2023-02-28T07:20:45;49.0;;;26.0;;
23360;SDS011;11852;50.082;18.554;2023-02-28T07:21:52;49.0;;;25.0;;
23360;SDS011;11852;50.082;18.554;2023-02-28T07:23:00;45.0;;;25.0;;
23360;SDS011;11852;50.082;18.554;2023-02-28T07:24:07;46.0;;;24.0;;
23360;SDS011;11852;50.082;18.554;2023-02-28T07:25:14;50.0;;;25.0;;
23360;SDS011;11852;50.082;18.554;2023-02-28T07:26:21;44.0;;;24.0;;
23360;SDS011;11852;50.082;18.554;2023-02-28T07:27:30;48.0;;;25.0;;
23360;SDS011;11852;50.082;18.554;2023-02-28T07:28:37;45.0;;;23.0;;
23360;SDS011;11852;50.082;18.554;2023-02-28T07:29:44;49.0;;;24.0;;
23360;SDS011;11852;50.082;18.554;2023-02-28T07:30:53;51.0;;;25.0;;
23360;SDS011;11852;50.082;18.554;2023-02-28T07:32:00;47.0;;;24.0;;
23360;SDS011;11852;50.082;18.554;2023-02-28T07:33:08;48.0;;;24.0;;
23360;SDS011;11852;50.082;18.554;2023-02-28T07:34:20;49.0;;;24.0;;